createdAt,value
2023-04-02T00:00:41.479Z,10.75
2023-04-02T00:04:00.716Z,10.67
2023-04-02T00:06:44.265Z,10.58
2023-04-02T00:09:23.776Z,10.49
2023-04-02T00:11:59.995Z,10.42
2023-04-02T00:14:30.771Z,10.33
2023-04-02T00:17:01.906Z,10.26
2023-04-02T00:19:35.817Z,10.22
2023-04-02T00:22:06.312Z,10.15
2023-04-02T00:24:35.190Z,10.09
2023-04-02T00:27:03.832Z,10.07
2023-04-02T00:29:32.627Z,10.03
2023-04-02T00:32:03.278Z,9.99
2023-04-02T00:34:36.369Z,9.96
2023-04-02T00:37:07.015Z,9.96
2023-04-02T00:39:40.057Z,9.96
2023-04-02T00:42:12.856Z,9.98
2023-04-02T00:44:43.778Z,9.98
2023-04-02T00:47:16.702Z,9.97
2023-04-02T00:49:47.378Z,9.93
2023-04-02T00:52:17.746Z,9.91
2023-04-02T00:54:50.348Z,9.91
2023-04-02T00:57:28.269Z,9.90
2023-04-02T01:00:15.634Z,9.85
2023-04-02T01:03:04.849Z,9.81
2023-04-02T01:05:43.401Z,9.79
2023-04-02T01:08:17.171Z,9.79
2023-04-02T01:10:58.675Z,9.79
2023-04-02T01:13:31.614Z,9.78
2023-04-02T01:16:08.924Z,9.77
2023-04-02T01:19:02.430Z,9.78
2023-04-02T01:21:53.577Z,9.78
2023-04-02T01:24:24.802Z,9.79
2023-04-02T01:26:57.277Z,9.80
2023-04-02T01:29:31.129Z,9.82
2023-04-02T01:32:03.031Z,9.85
2023-04-02T01:34:33.953Z,9.87
2023-04-02T01:37:18.259Z,9.90
2023-04-02T01:39:54.984Z,9.95
2023-04-02T01:42:27.694Z,9.98
2023-04-02T01:45:04.337Z,9.99
2023-04-02T01:47:32.960Z,9.95
2023-04-02T01:50:04.221Z,9.94
2023-04-02T01:52:38.414Z,9.93
2023-04-02T01:55:08.252Z,9.94
2023-04-02T01:57:38.053Z,9.93
2023-04-02T02:00:12.452Z,9.95
2023-04-02T02:02:46.639Z,9.99
2023-04-02T02:05:16.737Z,9.99
2023-04-02T02:07:46.082Z,9.96
2023-04-02T02:10:15.804Z,9.95
2023-04-02T02:12:45.522Z,9.94
2023-04-02T02:15:16.526Z,9.91
2023-04-02T02:17:51.346Z,9.89
2023-04-02T02:20:27.313Z,9.88
2023-04-02T02:22:56.530Z,9.90
2023-04-02T02:25:31.714Z,9.93
2023-04-02T02:28:04.065Z,9.94
2023-04-02T02:30:34.686Z,9.96
2023-04-02T02:33:06.853Z,9.98
2023-04-02T02:35:38.739Z,9.99
2023-04-02T02:38:23.375Z,10.00
2023-04-02T02:40:56.859Z,10.03
2023-04-02T02:43:27.187Z,10.06
2023-04-02T02:45:57.885Z,10.06
2023-04-02T02:48:28.643Z,10.04
2023-04-02T02:51:02.466Z,10.04
2023-04-02T02:53:32.456Z,10.05
2023-04-02T02:56:02.187Z,10.07
2023-04-02T02:58:33.418Z,10.10
2023-04-02T03:01:08.902Z,10.13
2023-04-02T03:03:38.367Z,10.13
2023-04-02T03:06:10.096Z,10.12
2023-04-02T03:08:41.605Z,10.12
2023-04-02T03:11:12.641Z,10.14
2023-04-02T03:13:46.806Z,10.16
2023-04-02T03:16:19.348Z,10.16
2023-04-02T03:18:51.664Z,10.17
2023-04-02T03:21:25.849Z,10.19
2023-04-02T03:24:01.242Z,10.20
2023-04-02T03:26:34.548Z,10.19
2023-04-02T03:29:07.113Z,10.18
2023-04-02T03:31:39.533Z,10.18
2023-04-02T03:34:13.450Z,10.19
2023-04-02T03:36:43.739Z,10.22
2023-04-02T03:39:17.369Z,10.22
2023-04-02T03:41:51.795Z,10.23
2023-04-02T03:44:22.966Z,10.24
2023-04-02T03:46:57.098Z,10.24
2023-04-02T03:49:36.647Z,10.20
2023-04-02T03:52:14.848Z,10.20
2023-04-02T03:54:54.121Z,10.19
2023-04-02T03:57:25.892Z,10.20
2023-04-02T03:59:58.525Z,10.26
2023-04-02T04:02:35.610Z,10.29
2023-04-02T04:05:06.003Z,10.30
2023-04-02T04:07:37.184Z,10.26
2023-04-02T04:10:06.973Z,10.23
2023-04-02T04:12:36.433Z,10.22
2023-04-02T04:15:07.922Z,10.24
2023-04-02T04:17:50.998Z,10.25
2023-04-02T04:20:22.546Z,10.25
2023-04-02T04:22:55.182Z,10.28
2023-04-02T04:25:28.958Z,10.29
2023-04-02T04:28:10.371Z,10.30
2023-04-02T04:30:46.710Z,10.29
2023-04-02T04:33:24.220Z,10.31
2023-04-02T04:35:54.747Z,10.34
2023-04-02T04:38:32.317Z,10.36
2023-04-02T04:41:04.569Z,10.38
2023-04-02T04:43:42.758Z,10.41
2023-04-02T04:46:15.792Z,10.45
2023-04-02T04:48:50.290Z,10.46
2023-04-02T04:51:21.080Z,10.42
2023-04-02T04:53:57.583Z,10.43
2023-04-02T04:56:27.247Z,10.44
2023-04-02T04:59:02.274Z,10.44
2023-04-02T05:01:37.007Z,10.42
2023-04-02T05:04:09.383Z,10.45
2023-04-02T05:06:41.214Z,10.51
2023-04-02T05:09:14.632Z,10.52
2023-04-02T05:11:45.751Z,10.53
2023-04-02T05:14:19.467Z,10.52
2023-04-02T05:16:51.613Z,10.51
2023-04-02T05:49:55.476Z,10.49
2023-04-02T05:52:28.012Z,10.46
2023-04-02T05:54:59.082Z,10.51
2023-04-02T05:57:43.831Z,10.59
2023-04-02T06:00:19.871Z,10.69
2023-04-02T06:02:54.351Z,10.74
2023-04-02T06:05:24.223Z,10.71
2023-04-02T06:07:56.270Z,10.67
2023-04-02T06:10:28.903Z,10.68
2023-04-02T06:13:03.252Z,10.70
2023-04-02T06:15:33.331Z,10.74
2023-04-02T06:18:08.066Z,10.73
2023-04-02T06:20:36.902Z,10.75
2023-04-02T06:23:12.424Z,10.80
2023-04-02T06:25:46.616Z,10.84
2023-04-02T06:28:18.652Z,10.89
2023-04-02T06:30:50.491Z,10.90
2023-04-02T06:33:19.110Z,10.87
2023-04-02T06:35:50.817Z,10.87
2023-04-02T06:38:21.404Z,10.90
2023-04-02T06:40:52.072Z,10.90
2023-04-02T06:43:25.788Z,10.86
2023-04-02T06:45:56.984Z,10.81
2023-04-02T06:48:25.326Z,10.80
2023-04-02T06:50:56.788Z,10.78
2023-04-02T06:53:26.772Z,10.80
2023-04-02T06:56:03.706Z,10.83
2023-04-02T06:58:33.846Z,10.86
2023-04-02T07:01:03.421Z,10.88
2023-04-02T07:03:33.279Z,10.93
2023-04-02T07:06:03.136Z,10.97
2023-04-02T07:08:32.148Z,11.01
2023-04-02T07:11:00.343Z,11.04
2023-04-02T07:13:30.273Z,11.08
2023-04-02T07:15:58.629Z,11.15
2023-04-02T07:18:27.862Z,11.20
2023-04-02T07:20:56.924Z,11.24
2023-04-02T07:23:25.609Z,11.31
2023-04-02T07:25:54.973Z,11.37
2023-04-02T07:28:23.754Z,11.40
2023-04-02T07:30:52.441Z,11.41
2023-04-02T07:33:21.680Z,11.49
2023-04-02T07:35:50.350Z,11.57
2023-04-02T07:38:18.868Z,11.61
2023-04-02T07:40:47.138Z,11.67
2023-04-02T07:43:15.818Z,11.73
2023-04-02T07:45:44.222Z,11.74
2023-04-02T07:48:13.395Z,11.70
2023-04-02T07:50:42.070Z,11.70
2023-04-02T07:53:19.580Z,11.71
2023-04-02T07:55:52.854Z,11.69
2023-04-02T07:58:21.104Z,11.72
2023-04-02T08:00:49.867Z,11.78
2023-04-02T08:03:18.839Z,11.91
2023-04-02T08:05:53.859Z,11.99
2023-04-02T08:08:23.681Z,12.09
2023-04-02T08:10:52.238Z,12.20
2023-04-02T08:13:20.531Z,12.27
2023-04-02T08:15:48.998Z,12.40
2023-04-02T08:18:17.626Z,12.47
2023-04-02T08:20:45.993Z,12.55
2023-04-02T08:23:18.393Z,12.65
2023-04-02T08:25:46.688Z,12.71
2023-04-02T08:28:14.906Z,12.72
2023-04-02T08:30:43.886Z,12.75
2023-04-02T08:33:14.207Z,12.83
2023-04-02T08:35:42.511Z,12.97
2023-04-02T08:38:14.293Z,13.17
2023-04-02T08:40:44.252Z,13.28
2023-04-02T08:43:23.532Z,13.35
2023-04-02T08:46:00.696Z,13.40
2023-04-02T08:48:33.862Z,13.54
2023-04-02T08:51:03.924Z,13.59
2023-04-02T08:53:34.387Z,13.53
2023-04-02T08:56:09.380Z,13.45
2023-04-02T08:58:41.362Z,13.38
2023-04-02T09:01:18.247Z,13.38
2023-04-02T09:03:48.992Z,13.42
2023-04-02T09:06:19.504Z,13.51
2023-04-02T09:08:50.829Z,13.62
2023-04-02T09:11:23.160Z,13.73
2023-04-02T09:13:54.838Z,13.83
2023-04-02T09:16:34.246Z,13.97
2023-04-02T09:19:12.743Z,14.11
2023-04-02T09:21:43.706Z,14.23
2023-04-02T09:24:12.320Z,14.38
2023-04-02T09:26:40.589Z,14.56
2023-04-02T09:29:35.316Z,14.74
2023-04-02T09:32:08.409Z,14.94
2023-04-02T09:34:37.056Z,15.08
2023-04-02T09:37:08.582Z,15.11
2023-04-02T09:39:39.389Z,15.17
2023-04-02T09:42:38.656Z,15.19
2023-04-02T09:45:14.128Z,15.20
2023-04-02T09:47:42.862Z,15.28
2023-04-02T09:50:19.555Z,15.31
2023-04-02T09:52:48.569Z,15.30
2023-04-02T09:55:22.239Z,15.20
2023-04-02T09:58:07.232Z,15.19
2023-04-02T10:00:37.006Z,15.26
2023-04-02T10:03:19.010Z,15.32
2023-04-02T10:05:49.271Z,15.36
2023-04-02T10:08:20.040Z,15.35
2023-04-02T10:10:51.337Z,15.37
2023-04-02T10:13:28.892Z,15.45
2023-04-02T10:16:14.298Z,15.53
2023-04-02T10:19:10.509Z,15.51
2023-04-02T10:21:49.119Z,15.48
2023-04-02T10:24:22.158Z,15.45
2023-04-02T10:27:03.529Z,15.43
2023-04-02T10:29:44.414Z,15.43
2023-04-02T10:32:18.486Z,15.42
2023-04-02T10:34:57.232Z,15.49
2023-04-02T10:37:38.661Z,15.54
2023-04-02T10:40:11.310Z,15.61
2023-04-02T10:42:43.557Z,15.62
2023-04-02T10:45:20.050Z,15.57
2023-04-02T10:47:51.682Z,15.56
2023-04-02T10:50:27.917Z,15.63
2023-04-02T10:52:59.303Z,15.70
2023-04-02T10:55:31.732Z,15.70
2023-04-02T10:58:07.733Z,15.60
2023-04-02T11:00:41.168Z,15.51
2023-04-02T11:03:13.748Z,15.47
2023-04-02T11:05:44.757Z,15.40
2023-04-02T11:08:16.679Z,15.36
2023-04-02T11:10:51.800Z,15.41
2023-04-02T11:13:24.316Z,15.43
2023-04-02T11:15:53.823Z,15.44
2023-04-02T11:18:27.625Z,15.48
2023-04-02T11:20:59.656Z,15.51
2023-04-02T11:23:30.381Z,15.50
2023-04-02T11:26:17.087Z,15.49
2023-04-02T11:28:45.900Z,15.55
2023-04-02T11:31:20.901Z,15.62
2023-04-02T11:33:50.145Z,15.64
2023-04-02T11:36:37.084Z,15.65
2023-04-02T11:39:17.155Z,15.68
2023-04-02T11:42:04.544Z,15.73
2023-04-02T11:44:34.489Z,15.86
2023-04-02T11:47:16.980Z,16.05
2023-04-02T11:50:04.511Z,16.30
2023-04-02T11:52:37.668Z,16.51
2023-04-02T11:55:24.019Z,16.66
2023-04-02T11:58:05.741Z,16.75
2023-04-02T12:00:47.715Z,16.77
2023-04-02T12:03:32.031Z,16.86
2023-04-02T12:06:06.226Z,17.06
2023-04-02T12:08:50.890Z,17.28
2023-04-02T12:11:34.508Z,17.55
2023-04-02T12:14:16.367Z,17.71
2023-04-02T12:16:50.332Z,17.79
2023-04-02T12:19:20.621Z,17.97
2023-04-02T12:21:52.409Z,18.19
2023-04-02T12:24:22.519Z,18.32
2023-04-02T12:27:08.835Z,18.31
2023-04-02T12:29:38.918Z,18.29
2023-04-02T12:32:18.863Z,18.21
2023-04-02T12:34:47.927Z,18.37
2023-04-02T12:37:22.628Z,18.64
2023-04-02T12:39:55.117Z,19.01
2023-04-02T12:42:27.382Z,19.23
2023-04-02T12:44:56.256Z,19.25
2023-04-02T12:47:25.119Z,19.31
2023-04-02T12:49:54.097Z,19.35
2023-04-02T12:52:28.076Z,19.53
2023-04-02T12:54:58.240Z,19.69
2023-04-02T12:57:35.090Z,19.75
2023-04-02T13:00:24.323Z,19.74
2023-04-02T13:02:59.614Z,19.67
2023-04-02T13:05:35.890Z,19.56
2023-04-02T13:08:05.729Z,19.41
2023-04-02T13:10:35.998Z,19.36
2023-04-02T13:13:06.326Z,19.46
2023-04-02T13:15:37.911Z,19.72
2023-04-02T13:18:18.265Z,20.14
2023-04-02T13:20:58.300Z,20.70
2023-04-02T13:23:41.845Z,21.24
2023-04-02T13:26:19.061Z,21.74
2023-04-02T13:28:56.606Z,21.75
2023-04-02T13:31:25.756Z,21.91
2023-04-02T13:33:54.091Z,22.41
2023-04-02T13:36:22.490Z,22.58
2023-04-02T13:38:51.310Z,23.31
2023-04-02T13:41:22.620Z,23.95
2023-04-02T13:43:51.890Z,24.00
2023-04-02T13:46:21.994Z,24.15
2023-04-02T13:48:59.346Z,24.58
2023-04-02T13:51:38.058Z,24.91
2023-04-02T13:54:09.074Z,25.30
2023-04-02T13:56:38.188Z,25.40
2023-04-02T13:59:07.511Z,25.63
2023-04-02T14:01:39.140Z,25.60
2023-04-02T14:04:09.707Z,25.33
2023-04-02T14:06:59.343Z,24.98
2023-04-02T14:09:33.632Z,24.57
2023-04-02T14:12:10.885Z,24.41
2023-04-02T14:14:52.147Z,24.14
2023-04-02T14:17:27.483Z,23.80
2023-04-02T14:20:06.088Z,23.55
2023-04-02T14:22:43.268Z,23.27
2023-04-02T14:25:17.857Z,22.87
2023-04-02T14:27:50.272Z,22.51
2023-04-02T14:30:22.071Z,22.06
2023-04-02T14:33:00.426Z,21.59
2023-04-02T14:35:33.862Z,21.09
2023-04-02T14:38:09.004Z,20.70
2023-04-02T14:40:45.988Z,20.33
2023-04-02T14:43:17.182Z,20.17
2023-04-02T14:45:54.647Z,20.02
2023-04-02T14:48:30.852Z,19.97
2023-04-02T14:51:01.941Z,19.90
2023-04-02T14:53:34.281Z,19.45
2023-04-02T14:56:06.324Z,19.27
2023-04-02T14:58:38.512Z,19.22
2023-04-02T15:01:13.328Z,19.23
2023-04-02T15:03:46.765Z,19.22
2023-04-02T15:06:18.765Z,19.21
2023-04-02T15:08:58.605Z,19.18
2023-04-02T15:11:36.650Z,19.14
2023-04-02T15:14:11.415Z,19.19
2023-04-02T15:16:43.634Z,19.24
2023-04-02T15:19:14.079Z,19.20
2023-04-02T15:21:57.648Z,19.08
2023-04-02T15:24:32.426Z,18.92
2023-04-02T15:27:14.732Z,18.82
2023-04-02T15:29:56.248Z,18.72
2023-04-02T15:32:29.500Z,18.64
2023-04-02T15:35:01.669Z,18.62
2023-04-02T15:37:36.519Z,18.53
2023-04-02T15:40:17.956Z,18.20
2023-04-02T15:42:53.322Z,17.62
2023-04-02T15:45:53.402Z,17.45
2023-04-02T15:48:34.150Z,17.46
2023-04-02T15:51:10.411Z,17.20
2023-04-02T15:53:49.421Z,17.01
2023-04-02T15:56:22.989Z,17.07
2023-04-02T15:58:59.571Z,17.09
2023-04-02T16:01:32.520Z,16.97
2023-04-02T16:04:19.775Z,16.84
2023-04-02T16:06:56.751Z,16.75
2023-04-02T16:09:30.238Z,16.65
2023-04-02T16:12:12.440Z,16.62
2023-04-02T16:14:43.083Z,16.54
2023-04-02T16:17:24.283Z,16.45
2023-04-02T16:19:56.848Z,16.42
2023-04-02T16:22:27.260Z,16.40
2023-04-02T16:24:57.996Z,16.36
2023-04-02T16:30:06.371Z,16.16
2023-04-02T16:32:59.784Z,16.09
2023-04-02T16:38:09.296Z,16.08
2023-04-02T16:40:40.777Z,16.07
2023-04-02T16:43:15.301Z,16.07
2023-04-02T16:45:47.043Z,16.05
2023-04-02T16:48:21.738Z,16.07
2023-04-02T16:50:56.241Z,16.10
2023-04-02T16:53:31.904Z,16.05
2023-04-02T16:56:13.195Z,15.99
2023-04-02T16:58:46.073Z,15.96
2023-04-02T17:01:18.901Z,15.94
2023-04-02T17:03:53.210Z,15.87
2023-04-02T17:41:08.160Z,15.42
2023-04-02T17:43:42.562Z,15.44
2023-04-02T17:46:16.810Z,15.45
2023-04-02T17:48:48.022Z,15.45
2023-04-02T17:51:21.271Z,15.42
2023-04-02T17:54:02.150Z,15.39
2023-04-02T17:56:39.550Z,15.40
2023-04-02T17:59:16.488Z,15.44
2023-04-02T18:01:50.762Z,15.39
2023-04-02T18:04:28.261Z,15.31
2023-04-02T18:07:06.406Z,15.25
2023-04-02T18:09:45.949Z,15.19
2023-04-02T18:12:22.140Z,15.13
2023-04-02T18:15:01.315Z,15.07
2023-04-02T18:17:41.394Z,15.02
2023-04-02T18:20:18.471Z,15.01
2023-04-02T18:22:54.518Z,14.99
2023-04-02T18:25:38.447Z,14.94
2023-04-02T18:28:18.497Z,15.01
2023-04-02T18:30:50.932Z,15.05
2023-04-02T18:33:37.859Z,15.06
2023-04-02T18:36:11.669Z,15.07
2023-04-02T18:38:43.354Z,15.10
2023-04-02T18:41:21.611Z,15.14
2023-04-02T18:44:02.353Z,15.06
2023-04-02T18:46:37.612Z,14.95
2023-04-02T18:49:19.176Z,15.00
2023-04-02T18:51:53.539Z,15.09
2023-04-02T18:54:41.379Z,15.18
2023-04-02T18:57:41.678Z,15.17
2023-04-02T19:00:40.708Z,15.12
2023-04-02T19:03:22.053Z,15.29
2023-04-02T19:05:56.172Z,15.39
2023-04-02T19:08:36.503Z,15.38
2023-04-02T19:14:38.586Z,15.39
2023-04-02T19:17:57.401Z,15.44
2023-04-02T19:20:32.367Z,15.46
2023-04-02T19:23:09.407Z,15.33
2023-04-02T19:25:50.475Z,15.20
2023-04-02T19:28:34.156Z,15.18
2023-04-02T19:31:22.899Z,15.18
2023-04-02T19:33:55.049Z,15.19
2023-04-02T19:36:47.187Z,15.20
2023-04-02T19:39:50.945Z,15.23
2023-04-02T19:42:48.705Z,15.06
2023-04-02T19:45:38.889Z,14.87
2023-04-02T19:48:25.467Z,14.69
2023-04-02T19:51:03.462Z,14.60
2023-04-02T19:53:43.197Z,14.55
2023-04-02T19:56:16.027Z,14.51
2023-04-02T19:58:45.637Z,14.35
2023-04-02T20:01:17.746Z,14.17
2023-04-02T20:03:58.146Z,14.18
2023-04-02T20:06:29.606Z,14.24
2023-04-02T20:08:59.005Z,14.30
2023-04-02T20:11:40.490Z,14.36
2023-04-02T20:14:30.696Z,14.39
2023-04-02T20:17:01.685Z,14.40
2023-04-02T20:19:30.674Z,14.42
2023-04-02T20:22:18.683Z,14.40
2023-04-02T20:24:47.928Z,14.35
2023-04-02T20:27:18.218Z,14.18
2023-04-02T20:29:47.669Z,14.04
2023-04-02T20:32:17.027Z,13.89
2023-04-02T20:34:46.448Z,13.71
2023-04-02T20:37:53.527Z,13.47
2023-04-02T20:40:24.485Z,13.23
2023-04-02T20:42:53.451Z,13.13
2023-04-02T20:45:22.446Z,13.12
2023-04-02T20:47:52.115Z,13.10
2023-04-02T20:51:12.097Z,13.01
2023-04-02T20:53:35.094Z,12.84
2023-04-02T20:56:20.403Z,12.81
2023-04-02T20:58:51.120Z,12.83
2023-04-02T21:01:20.161Z,12.88
2023-04-02T21:03:48.968Z,12.99
2023-04-02T21:06:21.310Z,13.17
2023-04-02T21:08:50.310Z,13.29
2023-04-02T21:11:22.754Z,13.36
2023-04-02T21:13:51.299Z,13.37
2023-04-02T21:16:20.528Z,13.39
2023-04-02T21:18:50.203Z,13.43
2023-04-02T21:21:19.917Z,13.49
2023-04-02T21:23:54.149Z,13.52
2023-04-02T21:26:22.809Z,13.51
2023-04-02T21:28:52.022Z,13.25
2023-04-02T21:31:29.878Z,12.97
2023-04-02T21:33:58.972Z,12.78
2023-04-02T21:36:29.170Z,12.75
2023-04-02T21:38:58.546Z,12.85
2023-04-02T21:41:28.071Z,12.90
2023-04-02T21:43:57.623Z,12.90
2023-04-02T21:46:27.948Z,12.99
2023-04-02T21:48:58.055Z,13.10
2023-04-02T21:51:27.813Z,13.18
2023-04-02T21:53:56.689Z,13.14
2023-04-02T21:56:26.640Z,13.14
2023-04-02T21:58:57.674Z,13.18
2023-04-02T22:01:28.006Z,13.20
2023-04-02T22:03:58.091Z,13.09
2023-04-02T22:06:27.901Z,13.00
2023-04-02T22:08:59.921Z,13.06
2023-04-02T22:11:31.290Z,13.15
2023-04-02T22:14:02.441Z,13.25
2023-04-02T22:16:31.933Z,13.35
2023-04-02T22:19:02.040Z,13.51
2023-04-02T22:21:33.104Z,13.55
2023-04-02T22:24:02.204Z,13.47
2023-04-02T22:26:32.382Z,13.43
2023-04-02T22:29:01.116Z,13.47
2023-04-02T22:31:31.121Z,13.54
2023-04-02T22:34:00.422Z,13.66
2023-04-02T22:36:29.401Z,13.75
2023-04-02T22:39:00.058Z,13.82
2023-04-02T22:41:33.252Z,13.85
2023-04-02T22:44:03.614Z,13.82
2023-04-02T22:46:32.415Z,13.67
2023-04-02T22:49:01.043Z,13.54
2023-04-02T22:51:30.277Z,13.41
2023-04-02T22:53:59.534Z,13.33
2023-04-02T22:56:31.217Z,13.31
2023-04-02T22:59:00.217Z,13.27
2023-04-02T23:01:29.361Z,13.12
2023-04-02T23:03:58.288Z,12.97
2023-04-02T23:06:27.325Z,12.89
2023-04-02T23:08:55.788Z,12.89
2023-04-02T23:11:25.511Z,12.94
2023-04-02T23:13:55.564Z,13.03
2023-04-02T23:16:28.920Z,13.09
2023-04-02T23:18:57.926Z,13.13
2023-04-02T23:21:27.688Z,13.08
2023-04-02T23:24:01.872Z,13.09
2023-04-02T23:26:33.058Z,13.08
2023-04-02T23:29:02.429Z,13.08
2023-04-02T23:31:31.371Z,13.08
2023-04-02T23:34:02.564Z,13.08
2023-04-02T23:36:34.354Z,13.14
2023-04-02T23:39:04.991Z,13.17
2023-04-02T23:41:33.709Z,13.15
2023-04-02T23:44:04.175Z,13.14
2023-04-02T23:46:35.058Z,13.15
2023-04-02T23:49:03.858Z,13.17
2023-04-02T23:51:32.382Z,13.15
2023-04-02T23:54:00.882Z,13.11
2023-04-02T23:56:29.743Z,12.95
2023-04-02T23:58:58.228Z,12.84
